Time;durP1;ratioP1;P1;durP2;ratioP2;P2;SDS_P1;SDS_P2;PMS_P1;PMS_P2;Temp;Humidity;BMP_temperature;BMP_pressure;BME280_temperature;BME280_humidity;BME280_pressure;Samples;Min_cycle;Max_cycle;Signal;HPM_P1;HPM_P2
2023/06/15 00:00:45;;;;;;;3.92;3.60;;;;;;;;;;5054310;28;20036;-23
2023/06/15 00:03:11;;;;;;;5.75;3.60;;;;;;;;;;5054260;28;20055;-23
2023/06/15 00:05:38;;;;;;;3.20;2.92;;;;;;;;;;5054924;28;20025;-22
2023/06/15 00:08:04;;;;;;;6.22;3.00;;;;;;;;;;5054313;28;20017;-23
2023/06/15 00:10:30;;;;;;;5.00;3.45;;;;;;;;;;5054353;28;20044;-21
2023/06/15 00:12:56;;;;;;;3.67;3.00;;;;;;;;;;5054205;28;20069;-22
2023/06/15 00:15:23;;;;;;;3.83;3.20;;;;;;;;;;5054312;28;20112;-23
2023/06/15 00:17:49;;;;;;;3.60;3.30;;;;;;;;;;5058276;28;20032;-23
2023/06/15 00:20:16;;;;;;;3.85;3.45;;;;;;;;;;5040897;28;20045;-23
2023/06/15 00:22:45;;;;;;;4.85;3.42;;;;;;;;;;5058082;28;20411;-24
2023/06/15 00:25:11;;;;;;;6.88;3.45;;;;;;;;;;5058169;28;20074;-23
2023/06/15 00:27:38;;;;;;;3.35;3.08;;;;;;;;;;5058137;28;20022;-23
2023/06/15 00:30:04;;;;;;;5.35;3.78;;;;;;;;;;5040441;28;20398;-23
2023/06/15 00:32:31;;;;;;;3.90;3.60;;;;;;;;;;5058211;28;20035;-23
2023/06/15 00:34:57;;;;;;;3.97;3.50;;;;;;;;;;5040374;28;20029;-22
2023/06/15 00:37:23;;;;;;;4.03;3.20;;;;;;;;;;5057924;28;20522;-22
2023/06/15 00:39:49;;;;;;;3.88;3.00;;;;;;;;;;5040331;28;20021;-23
2023/06/15 00:42:15;;;;;;;3.72;3.42;;;;;;;;;;5057629;28;20039;-23
2023/06/15 00:44:41;;;;;;;4.50;3.55;;;;;;;;;;5058038;28;20028;-22
2023/06/15 00:47:08;;;;;;;5.88;3.22;;;;;;;;;;5057734;28;20032;-23
2023/06/15 00:49:34;;;;;;;5.80;3.80;;;;;;;;;;5057645;28;20467;-22
2023/06/15 00:52:01;;;;;;;3.53;3.22;;;;;;;;;;5057543;28;20039;-22
2023/06/15 00:54:27;;;;;;;3.15;2.95;;;;;;;;;;5057604;28;20036;-23
2023/06/15 00:56:54;;;;;;;3.92;3.63;;;;;;;;;;5057539;28;20101;-22
2023/06/15 00:59:21;;;;;;;4.13;3.63;;;;;;;;;;5057799;28;20456;-23
2023/06/15 01:01:54;;;;;;;3.15;2.95;;;;;;;;;;5057309;28;20033;-21
2023/06/15 01:04:26;;;;;;;3.88;3.47;;;;;;;;;;5057417;28;20134;-22
2023/06/15 01:07:02;;;;;;;3.88;2.83;;;;;;;;;;5057685;28;20058;-22
2023/06/15 01:09:30;;;;;;;3.92;3.58;;;;;;;;;;5039798;28;20500;-23
2023/06/15 01:11:58;;;;;;;3.35;3.05;;;;;;;;;;5057234;28;20036;-22
2023/06/15 01:14:25;;;;;;;3.88;3.40;;;;;;;;;;5057189;28;20033;-21
2023/06/15 01:16:53;;;;;;;3.65;3.35;;;;;;;;;;5039635;28;20095;-25
2023/06/15 01:19:38;;;;;;;3.35;2.97;;;;;;;;;;5057199;28;20025;-22
2023/06/15 01:22:24;;;;;;;3.78;3.47;;;;;;;;;;5057246;28;20085;-24
2023/06/15 01:24:52;;;;;;;5.57;2.90;;;;;;;;;;5057059;28;20100;-21
2023/06/15 01:27:21;;;;;;;3.45;3.17;;;;;;;;;;5057018;28;20025;-22
2023/06/15 01:29:52;;;;;;;3.42;3.13;;;;;;;;;;5057751;28;20106;-22
2023/06/15 01:32:18;;;;;;;3.85;3.55;;;;;;;;;;5057201;28;20024;-23
2023/06/15 01:34:45;;;;;;;4.50;2.83;;;;;;;;;;5056828;28;20384;-23
2023/06/15 01:37:11;;;;;;;3.00;2.80;;;;;;;;;;5056846;28;20253;-23
2023/06/15 01:39:39;;;;;;;3.97;3.67;;;;;;;;;;5056720;28;20025;-23
2023/06/15 01:42:06;;;;;;;4.65;2.80;;;;;;;;;;5056864;28;20407;-23
2023/06/15 01:44:32;;;;;;;3.22;2.97;;;;;;;;;;5057189;28;20023;-23
2023/06/15 01:46:58;;;;;;;5.55;4.05;;;;;;;;;;5056899;28;20044;-23
2023/06/15 01:49:25;;;;;;;4.45;3.45;;;;;;;;;;5056652;28;20037;-24
2023/06/15 01:51:51;;;;;;;3.38;3.03;;;;;;;;;;5056421;28;20036;-22
2023/06/15 01:54:17;;;;;;;4.25;3.00;;;;;;;;;;5056539;28;20336;-23
2023/06/15 01:56:43;;;;;;;4.82;3.42;;;;;;;;;;5056723;28;20060;-23
2023/06/15 01:59:09;;;;;;;3.05;2.70;;;;;;;;;;5056976;28;20025;-24
2023/06/15 02:01:35;;;;;;;2.90;2.70;;;;;;;;;;5056526;28;20021;-22
2023/06/15 02:04:02;;;;;;;2.97;2.78;;;;;;;;;;5056040;28;20127;-23
2023/06/15 02:06:29;;;;;;;3.25;3.05;;;;;;;;;;5056232;28;20532;-21
2023/06/15 02:08:56;;;;;;;3.47;3.00;;;;;;;;;;5056198;28;20100;-22
2023/06/15 02:11:22;;;;;;;3.47;3.17;;;;;;;;;;5056436;28;20100;-23
2023/06/15 02:13:48;;;;;;;4.00;3.03;;;;;;;;;;5056013;28;20052;-23
2023/06/15 02:16:15;;;;;;;2.60;2.40;;;;;;;;;;5056090;28;20036;-23
2023/06/15 02:18:44;;;;;;;3.63;3.33;;;;;;;;;;5056287;28;20449;-21
2023/06/15 02:21:10;;;;;;;4.35;2.70;;;;;;;;;;5055928;28;20372;-22
2023/06/15 02:23:37;;;;;;;3.15;2.42;;;;;;;;;;5055900;28;20025;-22
2023/06/15 02:26:04;;;;;;;2.55;2.40;;;;;;;;;;5056152;28;20356;-21
2023/06/15 02:28:30;;;;;;;3.15;2.85;;;;;;;;;;5055842;28;20025;-22
2023/06/15 02:30:56;;;;;;;2.95;2.67;;;;;;;;;;5055725;28;20078;-22
2023/06/15 02:33:25;;;;;;;3.28;2.97;;;;;;;;;;5038120;28;20460;-23
2023/06/15 02:35:51;;;;;;;3.10;2.83;;;;;;;;;;5056015;28;20104;-22
2023/06/15 02:38:17;;;;;;;3.00;2.70;;;;;;;;;;5054865;28;20025;-23
2023/06/15 02:40:43;;;;;;;3.97;2.50;;;;;;;;;;5055825;28;20029;-23
2023/06/15 02:43:10;;;;;;;3.42;3.15;;;;;;;;;;5055508;28;20122;-22
2023/06/15 02:45:36;;;;;;;2.80;2.60;;;;;;;;;;5055451;28;20021;-22
2023/06/15 02:48:03;;;;;;;3.17;2.97;;;;;;;;;;5055724;28;20056;-22
2023/06/15 02:50:29;;;;;;;3.40;3.03;;;;;;;;;;5055437;28;20025;-21
2023/06/15 02:52:56;;;;;;;3.67;2.83;;;;;;;;;;5055267;28;20025;-23
2023/06/15 02:55:22;;;;;;;3.20;3.00;;;;;;;;;;5055353;28;20456;-23
2023/06/15 02:57:48;;;;;;;3.92;2.63;;;;;;;;;;5055555;28;20021;-23
2023/06/15 03:00:17;;;;;;;2.85;2.65;;;;;;;;;;5055223;28;20029;-22
2023/06/15 03:02:44;;;;;;;3.30;3.10;;;;;;;;;;5055279;28;20055;-22
2023/06/15 03:05:11;;;;;;;3.80;2.88;;;;;;;;;;5054996;28;20056;-24
2023/06/15 03:07:40;;;;;;;2.65;2.50;;;;;;;;;;5055466;28;20100;-22
2023/06/15 03:10:06;;;;;;;3.72;3.40;;;;;;;;;;5055090;28;20343;-23
2023/06/15 03:12:32;;;;;;;3.35;3.10;;;;;;;;;;5055515;28;20051;-23
2023/06/15 03:15:01;;;;;;;2.90;2.17;;;;;;;;;;5054961;28;20025;-22
2023/06/15 03:17:27;;;;;;;2.55;2.45;;;;;;;;;;5055278;28;20020;-22
2023/06/15 03:19:53;;;;;;;3.90;2.72;;;;;;;;;;5055221;28;20037;-22
2023/06/15 03:22:19;;;;;;;3.20;3.00;;;;;;;;;;5055015;28;20479;-20
2023/06/15 03:24:49;;;;;;;2.85;2.65;;;;;;;;;;5037279;28;20363;-20
2023/06/15 03:27:16;;;;;;;2.65;2.45;;;;;;;;;;5055025;28;20029;-25
2023/06/15 03:29:49;;;;;;;2.88;2.60;;;;;;;;;;5054756;28;20025;-26
2023/06/15 03:32:15;;;;;;;2.60;2.50;;;;;;;;;;5054992;28;20029;-26
2023/06/15 03:34:43;;;;;;;3.17;2.58;;;;;;;;;;5055177;28;20024;-20
2023/06/15 03:37:10;;;;;;;3.25;2.22;;;;;;;;;;5054869;28;20049;-20
2023/06/15 03:39:36;;;;;;;2.40;2.10;;;;;;;;;;5054849;28;20025;-23
2023/06/15 03:42:02;;;;;;;2.30;2.20;;;;;;;;;;5054393;28;20025;-20
2023/06/15 03:44:28;;;;;;;3.05;2.53;;;;;;;;;;5054807;28;20055;-22
2023/06/15 03:46:54;;;;;;;2.90;2.63;;;;;;;;;;5054754;28;20086;-19
2023/06/15 03:49:21;;;;;;;2.35;2.15;;;;;;;;;;5054267;28;20032;-20
2023/06/15 03:51:47;;;;;;;4.28;2.72;;;;;;;;;;5054353;28;20106;-22
2023/06/15 03:54:13;;;;;;;3.03;2.78;;;;;;;;;;5054666;28;20020;-21
2023/06/15 03:56:40;;;;;;;2.85;2.65;;;;;;;;;;5054627;28;20035;-18
2023/06/15 03:59:06;;;;;;;3.70;2.75;;;;;;;;;;5054298;28;20025;-20
2023/06/15 04:01:32;;;;;;;2.33;2.13;;;;;;;;;;5054245;28;20025;-21
2023/06/15 04:03:59;;;;;;;3.40;2.65;;;;;;;;;;5054200;28;20384;-18
2023/06/15 04:06:25;;;;;;;3.55;2.47;;;;;;;;;;5054262;28;20049;-23
2023/06/15 04:08:51;;;;;;;2.28;2.17;;;;;;;;;;5054136;28;20037;-21
2023/06/15 04:11:17;;;;;;;2.67;2.47;;;;;;;;;;5054001;28;20108;-21
2023/06/15 04:13:44;;;;;;;5.43;2.80;;;;;;;;;;5054410;28;20022;-23
2023/06/15 04:16:11;;;;;;;2.75;2.55;;;;;;;;;;5054263;28;20025;-22
2023/06/15 04:18:38;;;;;;;2.65;2.45;;;;;;;;;;5053972;28;20021;-20
2023/06/15 04:21:04;;;;;;;2.47;2.35;;;;;;;;;;5054595;28;20032;-21
2023/06/15 04:23:30;;;;;;;3.25;2.95;;;;;;;;;;5054152;28;20059;-23
2023/06/15 04:26:00;;;;;;;3.75;2.58;;;;;;;;;;5036450;28;20021;-22
2023/06/15 04:28:27;;;;;;;4.50;4.13;;;;;;;;;;5054549;28;20106;-18
2023/06/15 04:30:54;;;;;;;2.67;2.47;;;;;;;;;;5053917;28;20021;-18
2023/06/15 04:33:21;;;;;;;4.78;2.67;;;;;;;;;;5053867;28;20028;-22
2023/06/15 04:35:48;;;;;;;3.22;2.53;;;;;;;;;;5053909;28;20118;-20
2023/06/15 04:38:14;;;;;;;4.38;3.00;;;;;;;;;;5054597;28;20118;-20
2023/06/15 04:40:46;;;;;;;6.32;3.10;;;;;;;;;;5053837;28;20033;-25
2023/06/15 04:43:12;;;;;;;4.07;2.90;;;;;;;;;;5053696;28;20033;-20
2023/06/15 04:45:38;;;;;;;4.53;3.30;;;;;;;;;;5054051;28;20052;-18
2023/06/15 04:48:05;;;;;;;10.68;2.90;;;;;;;;;;5053703;28;20352;-23
2023/06/15 04:50:31;;;;;;;4.95;2.53;;;;;;;;;;5053850;28;20124;-18
2023/06/15 04:52:58;;;;;;;3.80;2.72;;;;;;;;;;5053458;28;20470;-21
2023/06/15 04:55:24;;;;;;;5.20;2.67;;;;;;;;;;5053633;28;20083;-17
2023/06/15 04:57:50;;;;;;;9.30;2.83;;;;;;;;;;5035958;28;20525;-18
2023/06/15 05:00:17;;;;;;;5.57;2.53;;;;;;;;;;5053715;28;20059;-19
2023/06/15 05:02:43;;;;;;;3.33;3.03;;;;;;;;;;5055803;28;20455;-20
2023/06/15 05:05:09;;;;;;;7.10;3.63;;;;;;;;;;5057073;28;20044;-21
2023/06/15 05:07:35;;;;;;;4.85;3.05;;;;;;;;;;5057417;28;20108;-21
2023/06/15 05:10:03;;;;;;;5.13;2.40;;;;;;;;;;5057179;28;20108;-21
2023/06/15 05:12:29;;;;;;;4.10;2.72;;;;;;;;;;5039763;28;20061;-21
2023/06/15 05:14:55;;;;;;;5.50;2.83;;;;;;;;;;5057288;28;20044;-23
2023/06/15 05:17:22;;;;;;;4.90;2.72;;;;;;;;;;5057247;28;20455;-21
2023/06/15 05:19:48;;;;;;;8.95;2.35;;;;;;;;;;5057377;28;20448;-20
2023/06/15 05:22:14;;;;;;;4.43;3.35;;;;;;;;;;5056666;28;20037;-20
2023/06/15 05:24:40;;;;;;;2.70;2.28;;;;;;;;;;5057306;28;20031;-19
2023/06/15 05:27:08;;;;;;;7.88;3.08;;;;;;;;;;5057622;28;20360;-20
2023/06/15 05:29:36;;;;;;;3.17;2.80;;;;;;;;;;5057261;28;20035;-18
2023/06/15 05:32:02;;;;;;;4.78;2.15;;;;;;;;;;5056653;28;20032;-20
2023/06/15 05:34:28;;;;;;;2.65;2.45;;;;;;;;;;5057288;28;20429;-19
2023/06/15 05:36:54;;;;;;;4.03;2.90;;;;;;;;;;5056941;28;20056;-25
2023/06/15 05:39:20;;;;;;;5.93;2.47;;;;;;;;;;5056641;28;20103;-21
2023/06/15 05:41:46;;;;;;;4.95;2.08;;;;;;;;;;5056655;28;20051;-23
2023/06/15 05:44:13;;;;;;;3.00;2.55;;;;;;;;;;5056829;28;20017;-19
2023/06/15 05:46:39;;;;;;;4.75;2.85;;;;;;;;;;5056947;28;20083;-21
2023/06/15 05:49:05;;;;;;;3.42;2.88;;;;;;;;;;5057194;28;20035;-21
2023/06/15 05:51:31;;;;;;;3.28;2.40;;;;;;;;;;5056991;28;20198;-21
2023/06/15 05:53:57;;;;;;;3.22;3.03;;;;;;;;;;5056360;28;20025;-21
2023/06/15 05:56:24;;;;;;;2.67;2.47;;;;;;;;;;5056605;28;20406;-22
2023/06/15 05:58:50;;;;;;;2.70;2.33;;;;;;;;;;5056325;28;20024;-23
2023/06/15 06:03:52;;;;;;;5.70;2.70;;;;;;;;;;5209736;22;20437;-30
2023/06/15 06:06:18;;;;;;;5.55;3.05;;;;;;;;;;5096293;28;20024;-31
2023/06/15 06:08:44;;;;;;;4.43;2.40;;;;;;;;;;5078719;28;20059;-31
2023/06/15 06:11:10;;;;;;;3.70;2.55;;;;;;;;;;5096353;28;20366;-29
2023/06/15 06:13:36;;;;;;;2.92;2.35;;;;;;;;;;5096457;28;20028;-32
2023/06/15 06:16:03;;;;;;;6.72;3.42;;;;;;;;;;5096642;28;20059;-25
2023/06/15 06:18:29;;;;;;;3.60;2.65;;;;;;;;;;5096577;28;20024;-31
2023/06/15 06:20:55;;;;;;;2.75;2.38;;;;;;;;;;5096412;28;20044;-33
2023/06/15 06:23:21;;;;;;;3.72;2.35;;;;;;;;;;5096085;28;20043;-28
2023/06/15 06:25:48;;;;;;;6.70;2.63;;;;;;;;;;5097141;28;20020;-31
2023/06/15 06:28:14;;;;;;;2.63;2.40;;;;;;;;;;5096006;28;20052;-29
2023/06/15 06:30:40;;;;;;;4.82;2.65;;;;;;;;;;5096014;28;20016;-29
2023/06/15 06:33:06;;;;;;;3.88;2.38;;;;;;;;;;5096420;28;20027;-31
2023/06/15 06:35:33;;;;;;;2.67;2.45;;;;;;;;;;5096453;28;20024;-29
2023/06/15 06:37:59;;;;;;;2.78;2.58;;;;;;;;;;5096061;28;20081;-31
2023/06/15 06:40:29;;;;;;;2.40;2.20;;;;;;;;;;5095829;28;20102;-36
2023/06/15 06:42:55;;;;;;;2.67;2.47;;;;;;;;;;5095472;28;20035;-31
2023/06/15 06:45:21;;;;;;;3.50;2.80;;;;;;;;;;5095715;28;20020;-28
2023/06/15 06:47:47;;;;;;;2.83;2.63;;;;;;;;;;5095901;28;20072;-30
2023/06/15 06:50:14;;;;;;;4.03;2.65;;;;;;;;;;5095674;28;20035;-32
2023/06/15 06:52:42;;;;;;;7.22;3.40;;;;;;;;;;5095783;28;20512;-28
2023/06/15 06:55:09;;;;;;;9.13;2.67;;;;;;;;;;5095323;28;20094;-30
2023/06/15 06:57:36;;;;;;;2.60;2.40;;;;;;;;;;5095719;28;20024;-28
2023/06/15 07:00:02;;;;;;;5.55;2.85;;;;;;;;;;5095244;28;20020;-29
2023/06/15 07:02:29;;;;;;;3.70;2.25;;;;;;;;;;5095367;28;20031;-27
2023/06/15 07:04:55;;;;;;;3.50;3.20;;;;;;;;;;5095135;28;20055;-26
2023/06/15 07:07:21;;;;;;;4.65;2.35;;;;;;;;;;5095459;28;20406;-29
2023/06/15 07:09:47;;;;;;;2.70;2.50;;;;;;;;;;5095505;28;20031;-30
2023/06/15 07:12:13;;;;;;;4.80;2.60;;;;;;;;;;5077210;28;20024;-31
2023/06/15 07:14:39;;;;;;;2.88;2.60;;;;;;;;;;5095109;28;20035;-30
2023/06/15 07:17:06;;;;;;;5.10;2.88;;;;;;;;;;5095143;28;20024;-28
2023/06/15 07:19:32;;;;;;;7.55;2.40;;;;;;;;;;5095352;28;20037;-30
2023/06/15 07:21:58;;;;;;;6.35;2.63;;;;;;;;;;5095301;28;20024;-30
2023/06/15 07:24:24;;;;;;;4.70;3.05;;;;;;;;;;5094609;28;20216;-27
2023/06/15 07:26:50;;;;;;;4.55;2.30;;;;;;;;;;5095299;28;20044;-31
2023/06/15 07:29:16;;;;;;;3.75;2.30;;;;;;;;;;5095260;28;20396;-31
2023/06/15 07:31:42;;;;;;;5.38;3.67;;;;;;;;;;5094696;28;20038;-29
2023/06/15 07:34:09;;;;;;;3.20;2.30;;;;;;;;;;5094956;28;20024;-32
2023/06/15 07:36:35;;;;;;;6.10;2.90;;;;;;;;;;5077038;28;20358;-29
2023/06/15 07:39:01;;;;;;;3.03;2.28;;;;;;;;;;5094709;28;20024;-29
2023/06/15 07:41:27;;;;;;;2.58;2.20;;;;;;;;;;5094899;28;20024;-30
2023/06/15 07:43:53;;;;;;;5.15;2.30;;;;;;;;;;5094591;28;20028;-31
2023/06/15 07:46:20;;;;;;;5.10;2.58;;;;;;;;;;5095069;28;20051;-29
2023/06/15 07:48:46;;;;;;;2.92;2.45;;;;;;;;;;5095129;28;20354;-28
2023/06/15 07:51:12;;;;;;;3.55;3.15;;;;;;;;;;5094580;28;20046;-30
2023/06/15 07:53:39;;;;;;;5.53;2.30;;;;;;;;;;5094433;28;20043;-27
2023/06/15 07:56:05;;;;;;;7.28;2.92;;;;;;;;;;5094673;28;20088;-30
2023/06/15 07:58:31;;;;;;;2.90;2.60;;;;;;;;;;5094833;28;20453;-30
2023/06/15 08:00:57;;;;;;;4.90;2.97;;;;;;;;;;5094468;28;20066;-31
2023/06/15 08:03:23;;;;;;;3.60;2.90;;;;;;;;;;5094389;28;20058;-29
2023/06/15 08:05:49;;;;;;;2.70;2.50;;;;;;;;;;5094469;28;20457;-29
2023/06/15 08:08:15;;;;;;;4.88;3.20;;;;;;;;;;5094442;28;20028;-31
2023/06/15 08:10:42;;;;;;;2.65;2.45;;;;;;;;;;5094379;28;20362;-31
2023/06/15 08:13:08;;;;;;;5.18;2.72;;;;;;;;;;5094359;28;20020;-29
2023/06/15 08:15:34;;;;;;;7.30;2.72;;;;;;;;;;5094339;28;20086;-32
2023/06/15 08:18:00;;;;;;;6.22;2.92;;;;;;;;;;5094292;28;20016;-30
2023/06/15 08:20:26;;;;;;;3.05;2.70;;;;;;;;;;5094615;28;20095;-29
2023/06/15 08:22:52;;;;;;;4.82;2.45;;;;;;;;;;5094295;28;20046;-30
2023/06/15 08:25:20;;;;;;;3.65;2.50;;;;;;;;;;5094255;28;20426;-30
2023/06/15 08:27:46;;;;;;;4.18;2.85;;;;;;;;;;5094470;28;20044;-26
2023/06/15 08:30:12;;;;;;;6.55;3.17;;;;;;;;;;5094245;28;20423;-28
2023/06/15 08:32:39;;;;;;;3.13;2.53;;;;;;;;;;5094396;28;20031;-29
2023/06/15 08:35:06;;;;;;;4.43;3.22;;;;;;;;;;5094260;28;20105;-30
2023/06/15 08:37:32;;;;;;;3.10;2.72;;;;;;;;;;5096328;28;20450;-27
2023/06/15 08:39:58;;;;;;;2.67;2.42;;;;;;;;;;5098471;28;20025;-31
2023/06/15 08:42:25;;;;;;;7.03;2.97;;;;;;;;;;5097908;28;20165;-30
2023/06/15 08:44:54;;;;;;;8.82;3.28;;;;;;;;;;5098095;28;20047;-35
2023/06/15 08:47:21;;;;;;;5.07;2.78;;;;;;;;;;5098293;28;20098;-30
2023/06/15 08:49:48;;;;;;;4.18;2.70;;;;;;;;;;5097949;28;20103;-31
2023/06/15 08:52:16;;;;;;;3.00;2.80;;;;;;;;;;5080815;28;20031;-26
2023/06/15 08:54:43;;;;;;;6.28;2.85;;;;;;;;;;5098119;28;20358;-29
2023/06/15 08:57:09;;;;;;;6.05;3.25;;;;;;;;;;5098108;28;20398;-26
2023/06/15 08:59:36;;;;;;;3.75;2.92;;;;;;;;;;5097844;28;20078;-31
2023/06/15 09:02:03;;;;;;;6.75;3.78;;;;;;;;;;5097438;28;20024;-31
2023/06/15 09:04:31;;;;;;;3.85;3.22;;;;;;;;;;5097479;28;20424;-28
2023/06/15 09:06:58;;;;;;;4.22;2.42;;;;;;;;;;5097578;28;20073;-29
2023/06/15 09:09:25;;;;;;;6.88;2.95;;;;;;;;;;5097491;28;20036;-30
2023/06/15 09:11:51;;;;;;;4.18;2.75;;;;;;;;;;5097494;28;20024;-31
2023/06/15 09:14:17;;;;;;;3.78;3.38;;;;;;;;;;5097827;28;20372;-29
2023/06/15 09:16:43;;;;;;;4.25;3.08;;;;;;;;;;5097432;28;20055;-30
2023/06/15 09:19:11;;;;;;;5.65;3.05;;;;;;;;;;5097346;28;20089;-29
2023/06/15 09:21:44;;;;;;;3.65;3.28;;;;;;;;;;5097245;28;20028;-30
2023/06/15 09:24:12;;;;;;;6.85;3.00;;;;;;;;;;5097582;28;20052;-31
2023/06/15 09:26:39;;;;;;;4.35;3.08;;;;;;;;;;5079384;28;20024;-28
2023/06/15 09:29:08;;;;;;;6.68;3.15;;;;;;;;;;5097383;28;20366;-28
2023/06/15 09:31:35;;;;;;;7.05;3.47;;;;;;;;;;5097234;28;20028;-31
2023/06/15 09:34:02;;;;;;;6.95;4.45;;;;;;;;;;5097053;28;20020;-30
2023/06/15 09:36:34;;;;;;;5.53;3.08;;;;;;;;;;5097025;28;20032;-30
2023/06/15 09:39:00;;;;;;;6.50;3.63;;;;;;;;;;5079112;28;20472;-29
2023/06/15 09:41:26;;;;;;;3.90;2.88;;;;;;;;;;5096790;28;20081;-29
2023/06/15 09:43:54;;;;;;;10.30;4.45;;;;;;;;;;5096941;28;20016;-30
2023/06/15 09:46:20;;;;;;;3.58;3.00;;;;;;;;;;5096829;28;20085;-27
2023/06/15 09:48:47;;;;;;;9.05;3.47;;;;;;;;;;5078492;28;20031;-31
2023/06/15 09:51:15;;;;;;;10.27;2.85;;;;;;;;;;5097079;28;20024;-29
2023/06/15 09:53:42;;;;;;;7.63;4.10;;;;;;;;;;5078857;28;20020;-31
2023/06/15 09:56:09;;;;;;;4.40;3.45;;;;;;;;;;5097102;28;20047;-32
2023/06/15 09:58:35;;;;;;;4.95;3.58;;;;;;;;;;5096840;28;20354;-29
2023/06/15 10:01:06;;;;;;;7.20;3.25;;;;;;;;;;5096769;28;20089;-27
2023/06/15 10:03:33;;;;;;;6.30;3.70;;;;;;;;;;5096176;28;20454;-31
2023/06/15 10:06:02;;;;;;;3.58;3.28;;;;;;;;;;5078599;28;20020;-27
2023/06/15 10:08:31;;;;;;;6.97;4.47;;;;;;;;;;5096636;28;20552;-30
2023/06/15 10:10:59;;;;;;;6.38;3.42;;;;;;;;;;5096205;28;20024;-30
2023/06/15 10:13:45;;;;;;;6.60;3.40;;;;;;;;;;5096172;28;20165;-33
2023/06/15 10:16:15;;;;;;;5.70;3.72;;;;;;;;;;5096444;28;20027;-31
2023/06/15 10:18:43;;;;;;;7.68;4.13;;;;;;;;;;5078328;28;20028;-32
2023/06/15 10:21:12;;;;;;;9.52;3.47;;;;;;;;;;5096223;28;20145;-29
2023/06/15 10:23:40;;;;;;;6.20;3.42;;;;;;;;;;5078334;28;20015;-30
2023/06/15 10:26:07;;;;;;;6.32;3.38;;;;;;;;;;5095935;28;20077;-31
2023/06/15 10:28:37;;;;;;;9.15;3.08;;;;;;;;;;5096292;28;20016;-29
2023/06/15 10:31:16;;;;;;;4.68;3.45;;;;;;;;;;5061567;28;20024;-31
2023/06/15 10:34:01;;;;;;;3.75;3.30;;;;;;;;;;5095615;28;20032;-30
2023/06/15 10:36:30;;;;;;;7.95;3.47;;;;;;;;;;5095953;28;20028;-33
2023/06/15 10:39:15;;;;;;;6.65;4.05;;;;;;;;;;5095660;28;20028;-31
2023/06/15 10:41:41;;;;;;;5.45;3.20;;;;;;;;;;5095844;28;20038;-29
2023/06/15 10:44:07;;;;;;;6.65;3.88;;;;;;;;;;5095609;28;20028;-30
2023/06/15 10:46:35;;;;;;;6.68;3.20;;;;;;;;;;5077699;28;20035;-31
2023/06/15 10:49:05;;;;;;;4.43;3.65;;;;;;;;;;5095481;28;20020;-32
2023/06/15 10:51:38;;;;;;;6.70;4.05;;;;;;;;;;5078067;28;20476;-27
2023/06/15 10:54:04;;;;;;;5.65;3.42;;;;;;;;;;5095438;28;20366;-28
2023/06/15 10:56:31;;;;;;;3.78;2.95;;;;;;;;;;5095824;28;20028;-31
2023/06/15 10:59:04;;;;;;;3.83;3.53;;;;;;;;;;5095203;28;20084;-28
2023/06/15 11:01:32;;;;;;;6.10;2.88;;;;;;;;;;5095446;28;20486;-30
2023/06/15 11:03:59;;;;;;;3.47;3.10;;;;;;;;;;5077223;28;20131;-30
2023/06/15 11:06:32;;;;;;;4.75;3.53;;;;;;;;;;5095528;28;20082;-28
2023/06/15 11:09:12;;;;;;;6.13;3.42;;;;;;;;;;5077330;28;20035;-28
2023/06/15 11:11:39;;;;;;;6.55;3.35;;;;;;;;;;5095509;28;20023;-29
2023/06/15 11:14:06;;;;;;;3.60;3.30;;;;;;;;;;5095113;28;20107;-30
2023/06/15 11:16:34;;;;;;;9.52;3.30;;;;;;;;;;5095179;28;20027;-27
2023/06/15 11:19:20;;;;;;;10.93;3.90;;;;;;;;;;5095548;28;20099;-30
2023/06/15 11:21:57;;;;;;;8.63;3.55;;;;;;;;;;5095055;28;20024;-30
2023/06/15 11:24:24;;;;;;;5.90;3.78;;;;;;;;;;5095006;28;20024;-31
2023/06/15 11:26:52;;;;;;;4.55;3.50;;;;;;;;;;5095306;28;20024;-30
2023/06/15 11:29:25;;;;;;;5.68;3.17;;;;;;;;;;5095189;28;20426;-32
2023/06/15 11:31:53;;;;;;;4.35;3.00;;;;;;;;;;5095035;28;20032;-28
2023/06/15 11:34:19;;;;;;;4.13;3.35;;;;;;;;;;5095110;28;20024;-31
2023/06/15 11:36:46;;;;;;;4.38;3.50;;;;;;;;;;5095347;28;20032;-30
2023/06/15 11:39:22;;;;;;;5.15;3.38;;;;;;;;;;5094760;28;20028;-28
2023/06/15 11:41:49;;;;;;;4.47;3.22;;;;;;;;;;5095199;28;20346;-28
2023/06/15 11:44:16;;;;;;;5.40;3.35;;;;;;;;;;5094766;28;20020;-28
2023/06/15 11:46:42;;;;;;;5.72;3.33;;;;;;;;;;5094834;28;20020;-29
2023/06/15 11:49:13;;;;;;;4.32;4.03;;;;;;;;;;5095229;28;20032;-29
2023/06/15 11:51:46;;;;;;;6.78;4.40;;;;;;;;;;5076966;28;20085;-30
2023/06/15 11:54:13;;;;;;;6.60;4.32;;;;;;;;;;5077966;28;20038;-30
2023/06/15 11:56:48;;;;;;;12.98;3.88;;;;;;;;;;5095218;28;20028;-29
2023/06/15 11:59:15;;;;;;;8.70;3.83;;;;;;;;;;5094830;28;20039;-28
2023/06/15 12:01:42;;;;;;;4.05;3.65;;;;;;;;;;5095057;28;20027;-30
2023/06/15 12:04:15;;;;;;;7.97;3.95;;;;;;;;;;5076589;28;20470;-32
2023/06/15 12:06:42;;;;;;;7.93;3.38;;;;;;;;;;5095405;28;20046;-29
2023/06/15 12:09:08;;;;;;;6.45;4.00;;;;;;;;;;5094620;28;20024;-27
2023/06/15 12:11:34;;;;;;;4.07;3.08;;;;;;;;;;5096665;28;20028;-29
2023/06/15 12:14:01;;;;;;;4.00;3.67;;;;;;;;;;5098559;28;20435;-29
2023/06/15 12:16:29;;;;;;;3.53;2.92;;;;;;;;;;5098640;28;20016;-28
2023/06/15 12:18:58;;;;;;;7.38;4.03;;;;;;;;;;5098569;28;20016;-27
2023/06/15 12:21:24;;;;;;;9.40;4.65;;;;;;;;;;5098549;28;20561;-28
2023/06/15 12:23:51;;;;;;;6.25;2.92;;;;;;;;;;5098270;28;20481;-31
2023/06/15 12:26:18;;;;;;;8.50;3.47;;;;;;;;;;5098642;28;20124;-31
2023/06/15 12:28:48;;;;;;;8.80;3.67;;;;;;;;;;5098399;28;20024;-31
2023/06/15 12:31:14;;;;;;;4.20;3.22;;;;;;;;;;5080575;28;20039;-28
2023/06/15 12:33:42;;;;;;;5.28;3.45;;;;;;;;;;5098245;28;20073;-30
2023/06/15 12:36:12;;;;;;;5.25;3.72;;;;;;;;;;5098379;28;20024;-28
2023/06/15 12:38:42;;;;;;;6.13;2.90;;;;;;;;;;5098175;28;20024;-31
2023/06/15 12:41:15;;;;;;;3.65;3.35;;;;;;;;;;5098074;28;20114;-27
2023/06/15 12:43:41;;;;;;;5.55;3.83;;;;;;;;;;5097913;28;20039;-29
2023/06/15 12:46:08;;;;;;;5.25;3.50;;;;;;;;;;5098181;28;20035;-30
2023/06/15 12:48:34;;;;;;;9.93;4.30;;;;;;;;;;5097825;28;20120;-30
2023/06/15 12:51:00;;;;;;;3.88;3.35;;;;;;;;;;5097870;28;20393;-31
2023/06/15 12:53:26;;;;;;;10.00;3.80;;;;;;;;;;5098033;28;20367;-29
2023/06/15 12:55:53;;;;;;;4.38;3.58;;;;;;;;;;5097678;28;20028;-29
2023/06/15 12:58:19;;;;;;;3.78;3.40;;;;;;;;;;5097605;28;20387;-31
2023/06/15 13:00:45;;;;;;;6.32;3.80;;;;;;;;;;5097855;28;20439;-29
2023/06/15 13:03:11;;;;;;;6.40;3.83;;;;;;;;;;5097358;28;20048;-30
2023/06/15 13:05:38;;;;;;;4.20;3.47;;;;;;;;;;5080545;28;20027;-29
2023/06/15 13:08:05;;;;;;;3.45;3.00;;;;;;;;;;5079710;28;20039;-29
2023/06/15 13:10:31;;;;;;;12.07;4.00;;;;;;;;;;5080104;28;20053;-29
2023/06/15 13:12:58;;;;;;;4.82;3.53;;;;;;;;;;5097551;28;20078;-30
2023/06/15 13:15:25;;;;;;;4.22;3.20;;;;;;;;;;5079627;28;20032;-31
2023/06/15 13:17:51;;;;;;;5.40;3.60;;;;;;;;;;5097241;28;20081;-30
2023/06/15 13:20:18;;;;;;;5.13;4.00;;;;;;;;;;5097237;28;20032;-32
2023/06/15 13:22:45;;;;;;;8.45;4.32;;;;;;;;;;5096438;28;20081;-29
2023/06/15 13:25:11;;;;;;;7.70;4.07;;;;;;;;;;5097311;28;20103;-28
2023/06/15 13:27:37;;;;;;;10.35;3.78;;;;;;;;;;5097606;28;20028;-30
2023/06/15 13:30:07;;;;;;;5.82;3.80;;;;;;;;;;5096864;28;20328;-31
2023/06/15 13:32:37;;;;;;;5.63;3.53;;;;;;;;;;5096847;28;20103;-31
2023/06/15 13:35:04;;;;;;;7.60;4.07;;;;;;;;;;5097023;28;20048;-32
2023/06/15 13:37:31;;;;;;;9.93;3.60;;;;;;;;;;5078929;28;20031;-31
2023/06/15 13:39:58;;;;;;;4.60;3.85;;;;;;;;;;5096766;28;20443;-27
2023/06/15 13:42:24;;;;;;;7.57;3.53;;;;;;;;;;5097065;28;20355;-30
2023/06/15 13:44:50;;;;;;;12.30;3.60;;;;;;;;;;5096655;28;20024;-29
2023/06/15 13:47:19;;;;;;;8.30;3.33;;;;;;;;;;5096575;28;20039;-30
2023/06/15 13:49:46;;;;;;;4.82;3.80;;;;;;;;;;5078820;28;20024;-29
2023/06/15 13:52:12;;;;;;;11.18;4.05;;;;;;;;;;5096832;28;20036;-30
2023/06/15 13:54:38;;;;;;;7.38;3.50;;;;;;;;;;5078788;28;20020;-28
2023/06/15 13:57:05;;;;;;;4.78;3.53;;;;;;;;;;5096671;28;20089;-30
2023/06/15 13:59:31;;;;;;;5.68;3.90;;;;;;;;;;5096776;28;20354;-31
2023/06/15 14:01:58;;;;;;;11.55;3.67;;;;;;;;;;5096588;28;20032;-31
2023/06/15 14:04:24;;;;;;;5.70;3.90;;;;;;;;;;5078494;28;20036;-28
2023/06/15 14:06:50;;;;;;;8.93;3.60;;;;;;;;;;5096836;28;20024;-30
2023/06/15 14:09:16;;;;;;;4.15;3.55;;;;;;;;;;5096317;28;20027;-30
2023/06/15 14:11:43;;;;;;;7.47;3.78;;;;;;;;;;5096095;28;20016;-30
2023/06/15 14:14:09;;;;;;;8.00;3.95;;;;;;;;;;5096134;28;20078;-33
2023/06/15 14:16:35;;;;;;;7.97;3.97;;;;;;;;;;5096058;28;20027;-28
2023/06/15 14:19:01;;;;;;;3.47;3.13;;;;;;;;;;5078448;28;20315;-30
2023/06/15 14:21:27;;;;;;;4.22;3.22;;;;;;;;;;5096557;28;20020;-28
2023/06/15 14:23:54;;;;;;;5.20;3.00;;;;;;;;;;5077961;28;20020;-28
2023/06/15 14:26:20;;;;;;;7.68;3.13;;;;;;;;;;5095973;28;20052;-30
2023/06/15 14:28:47;;;;;;;4.97;3.40;;;;;;;;;;5078103;28;20083;-31
2023/06/15 14:31:14;;;;;;;7.72;4.03;;;;;;;;;;5096098;28;20052;-28
2023/06/15 14:33:40;;;;;;;6.32;3.70;;;;;;;;;;5095553;28;20055;-28
2023/06/15 14:36:07;;;;;;;5.00;3.95;;;;;;;;;;5095015;28;20024;-32
2023/06/15 14:38:34;;;;;;;5.18;3.83;;;;;;;;;;5095809;28;20446;-28
2023/06/15 14:41:00;;;;;;;3.65;3.35;;;;;;;;;;5077908;28;20028;-30
2023/06/15 14:43:26;;;;;;;4.72;3.40;;;;;;;;;;5095461;28;20024;-30
2023/06/15 14:45:52;;;;;;;3.30;3.08;;;;;;;;;;5095521;28;20465;-30